Time;durP1;ratioP1;P1;durP2;ratioP2;P2;SDS_P1;SDS_P2;PMS_P1;PMS_P2;Temp;Humidity;BMP_temperature;BMP_pressure;BME280_temperature;BME280_humidity;BME280_pressure;Samples;Min_cycle;Max_cycle;Signal;HPM_P1;HPM_P2
2022/05/29 00:00:50;;;;;;;12.27;5.60;;;9.40;97.30;;;;;;5075024;28;20509;-82
2022/05/29 00:03:16;;;;;;;22.77;6.73;;;9.40;97.30;;;;;;5075164;28;20433;-82
2022/05/29 00:05:42;;;;;;;13.17;4.83;;;9.30;97.30;;;;;;5075195;28;20444;-82
2022/05/29 00:08:13;;;;;;;8.50;4.57;;;9.30;97.30;;;;;;5075737;28;20419;-82
2022/05/29 00:10:40;;;;;;;12.07;4.00;;;9.30;97.30;;;;;;5075639;28;20884;-82
2022/05/29 00:13:06;;;;;;;15.10;5.30;;;9.20;97.30;;;;;;5075953;28;20413;-82
2022/05/29 00:15:32;;;;;;;6.83;3.63;;;9.20;97.30;;;;;;5074977;28;21338;-82
2022/05/29 00:17:57;;;;;;;12.27;3.50;;;9.10;97.30;;;;;;5075407;28;20206;-81
2022/05/29 00:20:23;;;;;;;11.77;3.80;;;9.10;97.30;;;;;;5075756;28;20179;-82
2022/05/29 00:22:48;;;;;;;11.43;4.60;;;9.00;97.30;;;;;;5074913;28;20221;-83
2022/05/29 00:25:14;;;;;;;13.20;3.73;;;9.00;97.30;;;;;;5075535;28;20183;-82
2022/05/29 00:27:40;;;;;;;14.40;4.00;;;9.00;97.30;;;;;;5075005;28;20190;-82
2022/05/29 00:30:10;;;;;;;18.53;3.83;;;8.90;97.30;;;;;;5074873;28;20186;-82
2022/05/29 00:32:36;;;;;;;12.90;4.13;;;8.90;97.30;;;;;;5076270;28;20432;-81
2022/05/29 00:35:02;;;;;;;11.83;4.00;;;8.80;97.30;;;;;;5075900;28;20454;-81
2022/05/29 00:37:30;;;;;;;11.23;3.67;;;8.80;97.30;;;;;;5086573;28;20202;-82
2022/05/29 00:39:56;;;;;;;5.20;2.87;;;8.80;97.30;;;;;;5096100;28;20502;-82
2022/05/29 00:42:24;;;;;;;17.93;3.93;;;8.80;97.30;;;;;;5095797;28;20405;-82
2022/05/29 00:44:50;;;;;;;10.00;3.97;;;8.80;97.30;;;;;;5095523;28;20182;-82
2022/05/29 00:47:20;;;;;;;12.50;3.57;;;8.80;97.30;;;;;;5094877;28;20429;-82
2022/05/29 00:49:48;;;;;;;6.07;3.30;;;8.80;97.30;;;;;;5096209;28;20506;-82
2022/05/29 00:52:22;;;;;;;5.83;3.50;;;8.80;97.30;;;;;;5096896;28;20444;-82
2022/05/29 00:54:56;;;;;;;11.17;3.20;;;8.80;97.30;;;;;;5095011;28;20799;-82
2022/05/29 00:57:38;;;;;;;12.10;3.50;;;8.90;97.30;;;;;;5095812;28;20446;-82
2022/05/29 01:00:11;;;;;;;4.90;2.43;;;8.90;97.30;;;;;;5094449;28;20408;-82
2022/05/29 01:02:37;;;;;;;8.23;3.17;;;8.90;97.30;;;;;;5095381;28;20488;-82
2022/05/29 01:05:06;;;;;;;7.03;3.13;;;8.90;97.30;;;;;;5094812;28;20451;-82
2022/05/29 01:07:32;;;;;;;8.20;2.90;;;8.90;97.30;;;;;;5094985;28;20539;-82
2022/05/29 01:09:59;;;;;;;6.73;2.87;;;8.80;97.30;;;;;;5097375;28;20436;-81
2022/05/29 01:12:48;;;;;;;6.07;2.70;;;8.80;97.30;;;;;;5097181;28;20437;-81
2022/05/29 01:15:33;;;;;;;2.97;2.03;;;8.80;97.30;;;;;;5097160;28;20484;-81
2022/05/29 01:18:27;;;;;;;4.90;2.50;;;8.80;97.30;;;;;;5095375;28;20914;-82
2022/05/29 01:20:53;;;;;;;8.33;2.87;;;8.80;97.30;;;;;;5096382;28;20412;-81
2022/05/29 01:23:28;;;;;;;6.93;2.40;;;8.80;97.30;;;;;;5095257;28;20431;-81
2022/05/29 01:26:07;;;;;;;6.90;2.60;;;8.80;97.30;;;;;;5094907;28;20447;-82
2022/05/29 01:28:51;;;;;;;7.83;2.87;;;8.70;97.30;;;;;;5095984;28;20416;-82
2022/05/29 01:31:50;;;;;;;6.10;2.37;;;8.70;97.30;;;;;;5095357;28;20854;-82
2022/05/29 01:34:41;;;;;;;6.87;3.40;;;8.60;97.30;;;;;;5095775;28;20408;-82
2022/05/29 01:37:20;;;;;;;6.83;2.47;;;8.60;97.30;;;;;;5087393;28;20441;-82
2022/05/29 01:40:01;;;;;;;8.30;3.20;;;8.50;97.30;;;;;;5075316;28;20417;-82
2022/05/29 01:42:51;;;;;;;6.30;2.60;;;8.40;97.30;;;;;;5074785;28;20501;-81
2022/05/29 01:45:56;;;;;;;8.10;2.77;;;8.40;97.30;;;;;;5075301;28;21270;-82
2022/05/29 01:48:47;;;;;;;3.70;2.20;;;8.30;97.30;;;;;;5074088;28;20421;-81
2022/05/29 01:51:25;;;;;;;5.07;2.40;;;8.30;97.30;;;;;;5074071;28;20421;-81
2022/05/29 01:54:04;;;;;;;4.83;2.53;;;8.20;97.30;;;;;;5075050;28;20924;-81
2022/05/29 01:57:01;;;;;;;5.10;2.50;;;8.20;97.30;;;;;;5074488;28;20625;-82
2022/05/29 01:59:42;;;;;;;4.50;2.87;;;8.10;97.30;;;;;;5063929;28;20413;-82
2022/05/29 02:02:10;;;;;;;6.90;2.80;;;8.00;97.30;;;;;;5074829;28;20433;-81
2022/05/29 02:04:41;;;;;;;4.90;3.10;;;8.00;97.30;;;;;;5075339;28;20418;-81
2022/05/29 02:10:07;;;;;;;5.77;2.90;;;7.90;97.30;;;;;;5076407;28;20428;-82
2022/05/29 02:12:36;;;;;;;6.73;2.53;;;7.90;97.30;;;;;;5075108;28;20425;-81
2022/05/29 02:15:08;;;;;;;3.87;2.70;;;7.80;97.30;;;;;;5075041;28;20488;-81
2022/05/29 02:17:43;;;;;;;6.80;2.90;;;7.70;97.30;;;;;;5076102;28;20662;-81
2022/05/29 02:20:26;;;;;;;9.37;3.57;;;7.70;97.30;;;;;;5075655;28;20474;-81
2022/05/29 02:22:59;;;;;;;5.20;2.47;;;7.70;97.30;;;;;;5075474;28;20483;-81
2022/05/29 02:25:27;;;;;;;4.07;2.77;;;7.60;97.30;;;;;;5074511;28;20425;-81
2022/05/29 02:28:06;;;;;;;7.50;3.33;;;7.60;97.30;;;;;;5074068;28;20416;-81
2022/05/29 02:31:11;;;;;;;12.60;3.47;;;7.60;97.30;;;;;;5074502;28;20421;-81
2022/05/29 02:33:59;;;;;;;6.80;2.63;;;7.50;97.30;;;;;;5074773;28;20420;-81
2022/05/29 02:36:39;;;;;;;5.77;3.03;;;7.50;97.30;;;;;;5074920;28;20477;-81
2022/05/29 02:39:43;;;;;;;7.13;3.20;;;7.50;97.30;;;;;;5094994;28;20448;-81
2022/05/29 02:42:23;;;;;;;9.67;3.00;;;7.50;97.30;;;;;;4997063;28;20423;-81
2022/05/29 02:45:07;;;;;;;5.57;2.73;;;7.50;97.30;;;;;;5082442;28;20508;-81
2022/05/29 02:47:57;;;;;;;7.57;3.07;;;7.50;97.30;;;;;;5095372;28;20435;-81
2022/05/29 02:50:41;;;;;;;5.93;2.87;;;7.50;97.30;;;;;;5094574;28;20412;-81
2022/05/29 02:53:13;;;;;;;9.27;3.03;;;7.50;97.30;;;;;;5094666;28;20416;-81
2022/05/29 02:55:41;;;;;;;8.53;2.80;;;7.60;97.30;;;;;;5094543;28;20465;-81
2022/05/29 02:58:18;;;;;;;6.57;3.20;;;7.60;97.30;;;;;;5094556;28;20416;-81
2022/05/29 03:01:19;;;;;;;10.43;3.70;;;7.60;97.30;;;;;;5094899;28;20427;-81
2022/05/29 03:03:56;;;;;;;9.57;3.80;;;7.70;97.30;;;;;;5094324;28;20420;-81
2022/05/29 03:06:27;;;;;;;7.57;4.03;;;7.70;97.30;;;;;;5094386;28;20814;-81
2022/05/29 03:09:20;;;;;;;9.60;3.97;;;7.70;97.30;;;;;;5095054;28;20424;-82
2022/05/29 03:11:46;;;;;;;9.37;4.10;;;7.80;97.30;;;;;;5094704;28;20420;-81
2022/05/29 03:14:39;;;;;;;8.67;4.33;;;7.80;97.30;;;;;;5093856;28;20495;-81
2022/05/29 03:17:33;;;;;;;12.27;4.60;;;7.80;97.30;;;;;;5094271;28;20539;-81
2022/05/29 03:20:03;;;;;;;10.43;3.73;;;7.90;97.30;;;;;;5094455;28;20712;-81
2022/05/29 03:22:58;;;;;;;12.10;3.93;;;7.90;97.30;;;;;;5094223;28;20598;-81
2022/05/29 03:25:41;;;;;;;10.93;3.70;;;7.90;97.30;;;;;;5097162;28;20409;-81
2022/05/29 03:28:20;;;;;;;12.00;3.13;;;7.90;97.30;;;;;;5097863;28;20508;-81
2022/05/29 03:30:48;;;;;;;6.60;3.07;;;7.90;97.30;;;;;;5097791;28;20992;-81
2022/05/29 03:33:14;;;;;;;6.73;3.47;;;7.90;97.30;;;;;;5096501;28;20427;-81
2022/05/29 03:36:00;;;;;;;9.70;3.07;;;7.90;97.30;;;;;;5097513;28;20835;-81
2022/05/29 03:38:26;;;;;;;8.77;3.20;;;7.90;97.30;;;;;;5079262;28;20504;-81
2022/05/29 03:40:51;;;;;;;5.33;3.03;;;7.90;97.30;;;;;;5076444;28;20456;-81
2022/05/29 03:43:17;;;;;;;7.87;3.00;;;8.00;97.30;;;;;;5076802;28;20237;-81
2022/05/29 03:45:43;;;;;;;15.33;3.80;;;8.00;97.30;;;;;;5076088;28;20209;-81
2022/05/29 03:48:08;;;;;;;9.30;3.53;;;8.00;97.30;;;;;;5076289;28;20178;-81
2022/05/29 03:50:34;;;;;;;10.53;3.00;;;8.00;97.30;;;;;;5076164;28;20186;-81
2022/05/29 03:53:01;;;;;;;5.20;2.63;;;8.10;97.30;;;;;;5076949;28;20198;-81
2022/05/29 03:55:27;;;;;;;7.60;2.87;;;8.10;97.30;;;;;;5076591;28;20664;-81
2022/05/29 03:57:53;;;;;;;7.07;2.87;;;8.10;97.30;;;;;;5075767;28;20410;-81
2022/05/29 04:00:21;;;;;;;6.63;2.67;;;8.10;97.30;;;;;;5076073;28;20390;-81
2022/05/29 04:02:47;;;;;;;11.60;3.13;;;8.10;97.30;;;;;;5076357;28;20508;-81
2022/05/29 04:05:16;;;;;;;17.63;3.67;;;8.10;97.30;;;;;;5075211;28;20475;-81
2022/05/29 04:13:11;;;;;;;6.30;2.70;;;8.30;97.30;;;;;;5076249;28;20420;-81
2022/05/29 04:15:44;;;;;;;6.83;2.90;;;8.30;97.30;;;;;;5074539;28;20520;-81
2022/05/29 04:18:15;;;;;;;8.67;3.07;;;8.40;97.30;;;;;;5075317;28;20410;-80
2022/05/29 04:20:45;;;;;;;3.80;2.47;;;8.40;97.30;;;;;;5075054;28;20478;-80
2022/05/29 04:23:11;;;;;;;6.80;2.93;;;8.40;97.30;;;;;;5075161;28;20406;-80
2022/05/29 04:25:37;;;;;;;5.40;3.17;;;8.50;97.30;;;;;;5074651;28;21012;-80
2022/05/29 04:28:03;;;;;;;7.20;2.80;;;8.50;97.30;;;;;;5074396;28;20421;-80
2022/05/29 04:30:29;;;;;;;3.40;2.70;;;8.60;97.30;;;;;;5075756;28;20174;-80
2022/05/29 04:33:01;;;;;;;8.50;2.70;;;8.60;97.30;;;;;;5073694;28;20799;-80
2022/05/29 04:35:31;;;;;;;6.67;3.20;;;8.60;97.30;;;;;;5073702;28;20457;-80
2022/05/29 04:37:57;;;;;;;9.40;2.53;;;8.60;97.30;;;;;;5087738;28;20412;-80
2022/05/29 04:40:23;;;;;;;8.93;3.20;;;8.60;97.30;;;;;;5093452;28;20576;-80
2022/05/29 04:42:49;;;;;;;7.83;2.70;;;8.60;97.30;;;;;;5094276;28;20496;-80
2022/05/29 04:45:15;;;;;;;7.43;2.83;;;8.60;97.30;;;;;;5094587;28;20181;-80
2022/05/29 04:47:41;;;;;;;5.97;2.23;;;8.70;97.30;;;;;;5093595;28;20416;-80
2022/05/29 04:50:07;;;;;;;7.87;3.50;;;8.70;97.30;;;;;;5094289;28;20262;-81
2022/05/29 04:52:34;;;;;;;7.70;2.33;;;8.70;97.30;;;;;;5093402;28;20273;-80
2022/05/29 04:55:00;;;;;;;4.70;2.53;;;8.80;97.30;;;;;;5094729;28;20454;-80
2022/05/29 04:57:25;;;;;;;7.10;4.10;;;8.80;97.30;;;;;;5093831;28;20752;-80
2022/05/29 04:59:51;;;;;;;10.50;2.77;;;8.80;97.30;;;;;;5093063;28;20842;-80
2022/05/29 05:02:17;;;;;;;9.70;3.30;;;8.90;97.30;;;;;;5093957;28;20167;-80
2022/05/29 05:04:43;;;;;;;7.03;2.77;;;8.90;97.30;;;;;;5095371;28;20441;-80
2022/05/29 05:07:09;;;;;;;8.63;3.20;;;8.90;97.30;;;;;;5094926;28;20229;-80
2022/05/29 05:09:34;;;;;;;7.87;2.80;;;9.00;97.30;;;;;;5095926;28;20235;-80
2022/05/29 05:12:00;;;;;;;8.07;3.00;;;9.00;97.30;;;;;;5094769;28;20339;-80
2022/05/29 05:14:27;;;;;;;10.07;3.10;;;9.10;97.30;;;;;;5095308;28;20655;-80
2022/05/29 05:16:56;;;;;;;8.90;2.70;;;9.10;97.30;;;;;;5094068;28;20227;-80
2022/05/29 05:19:23;;;;;;;5.77;2.77;;;9.10;97.30;;;;;;5093825;28;20424;-80
2022/05/29 05:21:49;;;;;;;6.33;2.83;;;9.20;97.30;;;;;;5093350;28;20404;-81
2022/05/29 05:24:15;;;;;;;6.90;2.80;;;9.20;97.30;;;;;;5092714;28;20864;-80
2022/05/29 05:26:41;;;;;;;6.37;2.63;;;9.30;97.30;;;;;;5093045;28;20451;-80
2022/05/29 05:29:07;;;;;;;12.97;2.90;;;9.40;97.30;;;;;;5094010;28;20425;-81
2022/05/29 05:31:33;;;;;;;9.67;2.93;;;9.40;97.30;;;;;;5093646;28;20420;-80
2022/05/29 05:33:59;;;;;;;11.77;3.00;;;9.50;97.30;;;;;;5093819;28;20423;-80
2022/05/29 05:36:25;;;;;;;6.47;2.53;;;9.50;97.30;;;;;;5093018;28;20226;-80
2022/05/29 05:38:53;;;;;;;5.03;2.80;;;9.50;97.30;;;;;;5073316;28;20463;-80
2022/05/29 05:41:19;;;;;;;7.73;3.00;;;9.50;97.30;;;;;;5072515;28;20980;-80
2022/05/29 05:43:45;;;;;;;4.33;2.67;;;9.60;97.30;;;;;;5071830;28;20951;-80
2022/05/29 05:46:13;;;;;;;7.17;2.70;;;9.60;97.30;;;;;;5072383;28;20624;-80
2022/05/29 05:48:39;;;;;;;5.03;2.60;;;9.70;97.30;;;;;;5072289;28;20335;-80
2022/05/29 05:51:06;;;;;;;5.60;2.60;;;9.70;97.30;;;;;;5072315;28;20848;-80
2022/05/29 05:53:32;;;;;;;12.07;4.60;;;9.80;97.30;;;;;;5073298;28;20482;-81
2022/05/29 05:55:58;;;;;;;8.33;3.43;;;9.80;97.30;;;;;;5072655;28;20556;-81
2022/05/29 05:58:24;;;;;;;6.37;2.30;;;9.90;97.30;;;;;;5072771;28;20599;-80
2022/05/29 06:00:50;;;;;;;4.30;3.10;;;9.90;97.30;;;;;;5072677;28;20421;-80
2022/05/29 06:03:16;;;;;;;9.70;2.60;;;10.00;97.30;;;;;;5072547;28;20225;-80
2022/05/29 06:05:42;;;;;;;6.63;2.97;;;10.10;97.30;;;;;;5072303;28;20872;-80
2022/05/29 06:08:08;;;;;;;6.70;3.83;;;10.10;97.30;;;;;;5071762;28;20703;-80
2022/05/29 06:10:34;;;;;;;12.10;2.23;;;10.20;97.30;;;;;;5073628;28;20175;-80
2022/05/29 06:13:01;;;;;;;7.73;2.47;;;10.20;97.30;;;;;;5071884;28;20428;-80
2022/05/29 06:15:27;;;;;;;8.20;2.07;;;10.30;97.30;;;;;;5073225;28;20481;-80
2022/05/29 06:17:53;;;;;;;7.93;3.63;;;10.30;97.30;;;;;;5072267;28;20504;-80
2022/05/29 06:20:18;;;;;;;7.23;2.03;;;10.30;97.30;;;;;;5071915;28;20953;-80
2022/05/29 06:22:44;;;;;;;11.37;4.50;;;10.30;97.30;;;;;;5071831;28;20274;-80
2022/05/29 06:25:10;;;;;;;6.23;2.07;;;10.40;97.30;;;;;;5071934;28;20171;-80
2022/05/29 06:27:38;;;;;;;5.67;2.20;;;10.50;97.30;;;;;;5072028;28;20191;-81
2022/05/29 06:30:07;;;;;;;5.67;3.23;;;10.60;97.30;;;;;;5073131;28;20470;-81
2022/05/29 06:32:33;;;;;;;4.63;2.97;;;10.70;97.30;;;;;;5073268;28;20417;-81
2022/05/29 06:34:59;;;;;;;7.63;2.27;;;10.70;97.30;;;;;;5073363;28;20469;-80
2022/05/29 06:37:25;;;;;;;4.53;2.10;;;10.80;97.30;;;;;;5081975;28;20524;-81
2022/05/29 06:39:50;;;;;;;7.23;2.20;;;10.90;97.30;;;;;;5093579;28;20451;-81
2022/05/29 06:42:16;;;;;;;5.90;2.33;;;11.00;97.30;;;;;;5095497;28;20559;-81
2022/05/29 06:44:42;;;;;;;5.87;2.40;;;11.00;97.30;;;;;;5095021;28;20231;-81
2022/05/29 06:47:09;;;;;;;11.53;2.60;;;11.10;97.30;;;;;;5094270;28;20194;-81
2022/05/29 06:49:36;;;;;;;6.20;2.00;;;11.20;97.30;;;;;;5094389;28;20531;-81
2022/05/29 06:52:09;;;;;;;7.80;2.10;;;11.30;97.30;;;;;;5094872;28;20773;-81
2022/05/29 06:54:35;;;;;;;7.60;2.60;;;11.40;97.30;;;;;;5094777;28;20413;-81
2022/05/29 06:57:01;;;;;;;12.63;2.80;;;11.50;97.30;;;;;;5094608;28;20843;-81
2022/05/29 06:59:27;;;;;;;7.33;2.80;;;11.60;97.30;;;;;;5098124;28;20412;-81
2022/05/29 07:07:22;;;;;;;6.77;2.30;;;11.50;97.30;;;;;;5098017;28;20823;-81
2022/05/29 07:09:48;;;;;;;6.13;2.10;;;11.50;97.30;;;;;;5097046;28;20835;-80
2022/05/29 07:12:25;;;;;;;4.63;2.20;;;11.40;97.30;;;;;;5096176;28;20431;-81
2022/05/29 07:14:59;;;;;;;7.20;2.93;;;11.40;97.30;;;;;;5096945;28;20944;-81
2022/05/29 07:17:27;;;;;;;3.27;2.33;;;11.40;97.30;;;;;;5099788;28;20948;-81
2022/05/29 07:19:53;;;;;;;9.73;2.50;;;11.40;97.30;;;;;;5097443;28;20424;-81
2022/05/29 07:22:18;;;;;;;11.00;2.83;;;11.40;97.30;;;;;;5097511;28;20787;-80
2022/05/29 07:24:44;;;;;;;10.40;2.70;;;11.40;97.30;;;;;;5097451;28;20640;-81
2022/05/29 07:27:10;;;;;;;5.23;2.57;;;11.40;97.30;;;;;;5097554;28;20218;-81
2022/05/29 07:29:36;;;;;;;6.00;2.30;;;11.50;97.30;;;;;;5098246;28;20432;-80
2022/05/29 07:32:02;;;;;;;6.70;2.40;;;11.60;97.30;;;;;;5099576;28;20458;-81
2022/05/29 07:34:28;;;;;;;11.40;2.67;;;11.60;97.30;;;;;;5098073;28;20324;-81
2022/05/29 07:37:00;;;;;;;8.50;3.00;;;11.60;97.30;;;;;;5092020;28;20449;-81
2022/05/29 07:39:25;;;;;;;5.63;2.57;;;11.70;97.30;;;;;;5077248;28;20225;-81
2022/05/29 07:44:35;;;;;;;14.00;2.87;;;11.70;97.30;;;;;;5078679;28;20233;-80
2022/05/29 07:47:00;;;;;;;3.90;2.50;;;11.70;97.30;;;;;;5076725;28;20437;-81
2022/05/29 07:49:26;;;;;;;4.87;2.57;;;11.70;97.30;;;;;;5076524;28;20416;-81
2022/05/29 07:51:51;;;;;;;5.23;3.10;;;11.70;97.30;;;;;;5076864;28;20206;-80
2022/05/29 07:54:17;;;;;;;5.27;2.70;;;11.80;97.30;;;;;;5075983;28;20179;-81
2022/05/29 07:56:43;;;;;;;11.80;2.80;;;11.80;97.30;;;;;;5076305;28;20241;-81
2022/05/29 07:59:08;;;;;;;17.07;3.30;;;11.80;97.30;;;;;;5076567;28;20171;-81
2022/05/29 08:01:34;;;;;;;6.67;2.70;;;11.90;97.30;;;;;;5076918;28;20171;-81
2022/05/29 08:03:59;;;;;;;10.17;2.77;;;12.00;97.30;;;;;;5076462;28;20185;-80
2022/05/29 08:06:26;;;;;;;6.93;2.67;;;12.10;97.30;;;;;;5075921;28;20199;-81
2022/05/29 08:08:51;;;;;;;8.30;2.17;;;12.20;97.30;;;;;;5076729;28;20257;-81
2022/05/29 08:11:18;;;;;;;4.50;2.40;;;12.30;97.30;;;;;;5075699;28;20421;-79
2022/05/29 08:13:44;;;;;;;6.90;2.63;;;12.30;97.30;;;;;;5075848;28;20183;-80
2022/05/29 08:16:10;;;;;;;5.60;2.43;;;12.40;97.30;;;;;;5075539;28;20937;-81
2022/05/29 08:18:36;;;;;;;9.80;2.70;;;12.50;97.30;;;;;;5077518;28;20592;-81
2022/05/29 08:21:03;;;;;;;7.33;2.27;;;12.50;97.30;;;;;;5075757;28;20790;-81
2022/05/29 08:23:28;;;;;;;5.90;2.40;;;12.60;97.30;;;;;;5075924;28;20175;-81
2022/05/29 08:30:37;;;;;;;4.67;2.20;;;12.60;97.30;;;;;;5078520;28;20202;-81
2022/05/29 08:31:27;;;;;;;3.90;2.27;;;12.60;97.30;;;;;;5077675;28;20410;-81
2022/05/29 08:33:53;;;;;;;10.10;3.10;;;12.60;96.90;;;;;;5077180;28;20405;-81
2022/05/29 08:36:24;;;;;;;4.80;2.00;;;12.60;96.20;;;;;;5075403;28;20206;-81
2022/05/29 08:38:52;;;;;;;8.27;2.50;;;12.60;96.10;;;;;;5095875;28;20174;-81
2022/05/29 08:41:29;;;;;;;7.60;2.33;;;12.60;96.90;;;;;;5096082;28;21044;-81
2022/05/29 08:44:11;;;;;;;6.40;2.37;;;12.70;96.80;;;;;;5097435;28;20952;-81
2022/05/29 08:46:40;;;;;;;4.17;2.27;;;12.70;95.80;;;;;;5095882;28;20436;-82
2022/05/29 08:49:09;;;;;;;4.87;2.60;;;12.70;95.60;;;;;;5095654;28;20419;-81
2022/05/29 08:51:53;;;;;;;4.50;2.30;;;12.80;95.90;;;;;;5094492;28;20424;-82
2022/05/29 08:54:42;;;;;;;4.97;2.90;;;12.90;95.30;;;;;;5095271;28;20995;-82
2022/05/29 08:57:32;;;;;;;5.80;2.00;;;12.90;94.30;;;;;;5094955;28;20468;-82
2022/05/29 09:00:00;;;;;;;13.30;2.23;;;13.00;94.60;;;;;;5095040;28;20409;-81
2022/05/29 09:03:03;;;;;;;12.17;2.30;;;13.10;93.60;;;;;;5094150;28;20409;-81
2022/05/29 09:05:42;;;;;;;7.50;2.10;;;13.00;93.30;;;;;;5088792;28;20416;-81
2022/05/29 09:08:19;;;;;;;6.20;2.13;;;13.10;93.80;;;;;;5095216;28;20590;-81
2022/05/29 09:10:47;;;;;;;4.13;1.80;;;13.10;93.40;;;;;;5095073;28;20416;-81
2022/05/29 09:13:32;;;;;;;4.30;2.07;;;13.10;93.10;;;;;;5094970;28;20416;-82
2022/05/29 09:16:06;;;;;;;3.07;1.80;;;13.30;92.90;;;;;;5093336;28;20848;-81
2022/05/29 09:18:37;;;;;;;4.33;2.63;;;13.30;92.10;;;;;;5093737;28;20409;-82
2022/05/29 09:21:07;;;;;;;3.40;1.50;;;13.40;91.20;;;;;;5093230;28;20481;-81
2022/05/29 09:24:03;;;;;;;6.80;2.10;;;13.50;90.50;;;;;;5093952;28;20479;-81
2022/05/29 09:26:35;;;;;;;4.33;2.37;;;13.70;91.90;;;;;;5089825;28;20464;-81
2022/05/29 09:29:01;;;;;;;3.40;1.60;;;13.80;91.20;;;;;;5094258;28;20508;-81
2022/05/29 09:31:26;;;;;;;2.20;1.60;;;13.90;91.40;;;;;;5094005;28;20499;-81
2022/05/29 09:33:53;;;;;;;4.60;2.10;;;14.10;91.00;;;;;;5094131;28;20416;-81
2022/05/29 09:36:50;;;;;;;2.90;1.30;;;14.30;90.70;;;;;;5092306;28;20210;-81
2022/05/29 09:39:32;;;;;;;9.30;1.93;;;14.50;90.30;;;;;;5074144;28;20413;-81
2022/05/29 09:42:08;;;;;;;3.50;1.83;;;14.80;90.50;;;;;;5073861;28;20495;-81
2022/05/29 09:44:34;;;;;;;3.90;2.37;;;15.00;88.90;;;;;;5072907;28;20416;-81
2022/05/29 09:50:11;;;;;;;5.50;2.20;;;15.30;88.90;;;;;;5075547;28;20405;-81
2022/05/29 09:52:41;;;;;;;6.60;1.77;;;15.40;89.20;;;;;;5073553;28;20464;-81
2022/05/29 09:55:32;;;;;;;3.37;1.80;;;15.50;88.50;;;;;;5073117;28;20582;-81
2022/05/29 09:58:10;;;;;;;2.93;1.60;;;15.40;88.20;;;;;;5073014;28;20421;-81
2022/05/29 10:00:39;;;;;;;6.37;1.90;;;15.30;87.70;;;;;;5074073;28;20440;-82
2022/05/29 10:03:07;;;;;;;6.43;1.93;;;15.30;88.80;;;;;;5072725;28;20432;-82
2022/05/29 10:05:38;;;;;;;4.27;2.10;;;15.20;89.70;;;;;;5071963;28;20520;-82
2022/05/29 10:08:26;;;;;;;2.90;1.60;;;15.30;88.70;;;;;;5071200;28;20417;-83
2022/05/29 10:10:52;;;;;;;6.23;1.80;;;15.30;87.70;;;;;;5058211;28;20492;-82
2022/05/29 10:13:35;;;;;;;2.47;1.40;;;15.20;86.80;;;;;;5071164;28;20412;-81
2022/05/29 10:16:01;;;;;;;1.70;1.30;;;15.10;86.70;;;;;;5072698;28;20238;-81
2022/05/29 10:18:41;;;;;;;5.43;1.60;;;15.10;86.60;;;;;;5073961;28;20414;-81
2022/05/29 10:21:13;;;;;;;7.50;1.70;;;15.10;85.60;;;;;;5072734;28;20163;-81
2022/05/29 10:23:39;;;;;;;3.40;1.60;;;15.30;85.80;;;;;;5073022;28;20414;-83
2022/05/29 10:26:08;;;;;;;5.33;1.70;;;15.50;86.80;;;;;;5070334;28;20811;-83
2022/05/29 10:28:38;;;;;;;3.00;1.60;;;15.60;86.00;;;;;;5071138;28;20587;-81
2022/05/29 10:31:12;;;;;;;3.10;1.63;;;15.60;85.00;;;;;;5076365;28;20432;-82
2022/05/29 10:33:37;;;;;;;2.83;1.50;;;15.70;85.60;;;;;;5076447;28;20481;-82
2022/05/29 10:36:16;;;;;;;3.30;1.80;;;15.80;86.60;;;;;;5075381;28;20472;-82
2022/05/29 10:38:44;;;;;;;2.90;1.50;;;15.90;86.00;;;;;;5075621;28;20178;-81
2022/05/29 10:41:10;;;;;;;2.13;1.47;;;15.90;85.00;;;;;;5076467;28;20508;-81
2022/05/29 10:43:41;;;;;;;2.13;1.50;;;15.90;85.20;;;;;;5077257;28;20417;-82
2022/05/29 10:46:15;;;;;;;3.20;1.60;;;16.00;83.80;;;;;;5075285;28;20455;-82
2022/05/29 10:49:45;;;;;;;3.20;1.47;;;16.20;86.00;;;;;;5074582;28;20420;-82
2022/05/29 10:52:19;;;;;;;3.37;1.60;;;16.40;84.40;;;;;;5074108;28;20846;-82
2022/05/29 10:55:18;;;;;;;4.07;1.40;;;16.50;83.20;;;;;;5073412;28;20431;-82
2022/05/29 10:58:09;;;;;;;2.67;1.40;;;16.70;84.10;;;;;;5074609;28;20421;-82
2022/05/29 11:00:54;;;;;;;3.87;1.23;;;16.70;82.30;;;;;;5074343;28;20927;-82
2022/05/29 11:03:35;;;;;;;3.17;1.63;;;16.60;81.40;;;;;;5072746;28;20413;-83
2022/05/29 11:06:22;;;;;;;6.67;2.50;;;16.60;80.00;;;;;;5073327;28;20898;-83
2022/05/29 11:09:06;;;;;;;2.17;1.30;;;16.30;81.40;;;;;;5072054;28;20421;-83
2022/05/29 11:11:55;;;;;;;4.87;2.10;;;16.10;80.30;;;;;;5072365;28;20463;-83
2022/05/29 11:14:42;;;;;;;2.23;1.40;;;15.80;81.20;;;;;;5073199;28;20417;-82
2022/05/29 11:17:47;;;;;;;3.47;1.60;;;15.80;82.50;;;;;;5074046;28;20456;-82
2022/05/29 11:20:43;;;;;;;1.50;1.20;;;15.80;82.20;;;;;;5069414;28;20408;-82
2022/05/29 11:23:53;;;;;;;3.10;1.53;;;15.80;82.90;;;;;;5073752;28;20420;-82
2022/05/29 11:26:45;;;;;;;4.20;1.67;;;15.70;83.40;;;;;;5052316;28;20531;-82
2022/05/29 11:29:33;;;;;;;3.50;1.57;;;15.70;83.70;;;;;;5073102;28;20418;-81
2022/05/29 11:32:17;;;;;;;5.53;1.50;;;15.70;83.40;;;;;;5073792;28;20402;-82
2022/05/29 11:35:01;;;;;;;4.83;1.50;;;15.80;85.10;;;;;;5074451;28;20424;-82
2022/05/29 11:37:55;;;;;;;4.13;1.70;;;16.10;86.10;;;;;;5079477;28;20946;-82
2022/05/29 11:40:29;;;;;;;2.70;1.60;;;16.20;83.90;;;;;;5089949;28;20460;-82
2022/05/29 11:43:14;;;;;;;5.13;1.70;;;16.20;82.60;;;;;;5089062;28;20919;-82
2022/05/29 11:51:58;;;;;;;6.43;2.17;;;16.50;83.90;;;;;;5073970;28;20425;-83
2022/05/29 11:54:34;;;;;;;3.00;1.40;;;16.90;84.30;;;;;;5089005;28;20808;-83
2022/05/29 11:57:12;;;;;;;1.40;1.20;;;17.10;82.80;;;;;;5088469;28;20472;-83
2022/05/29 11:59:52;;;;;;;7.60;1.60;;;17.20;80.30;;;;;;5088439;28;20508;-83
2022/05/29 12:02:48;;;;;;;1.73;1.47;;;17.20;80.60;;;;;;5088197;28;20425;-82
2022/05/29 12:05:38;;;;;;;3.63;1.70;;;17.20;79.40;;;;;;5087763;28;20961;-82
2022/05/29 12:08:14;;;;;;;4.23;1.90;;;17.20;80.00;;;;;;5087511;28;20429;-83
2022/05/29 12:11:28;;;;;;;2.77;1.70;;;17.00;79.70;;;;;;5087871;28;20417;-84
2022/05/29 12:14:26;;;;;;;6.33;1.73;;;16.90;80.00;;;;;;5056994;28;20425;-83
2022/05/29 12:16:57;;;;;;;6.70;2.93;;;17.10;81.80;;;;;;5059273;28;20481;-82
2022/05/29 12:19:39;;;;;;;2.93;1.40;;;17.40;78.70;;;;;;5087230;28;20417;-82
2022/05/29 12:22:08;;;;;;;3.47;1.50;;;17.40;79.70;;;;;;5071918;28;20968;-83
2022/05/29 12:24:37;;;;;;;3.30;1.50;;;17.50;78.80;;;;;;5087612;28;20863;-83
2022/05/29 12:27:14;;;;;;;2.93;1.40;;;17.50;78.90;;;;;;5087776;28;20441;-84
2022/05/29 12:30:05;;;;;;;4.43;1.67;;;17.40;78.80;;;;;;5087579;28;20421;-83
2022/05/29 12:32:34;;;;;;;3.83;1.60;;;17.50;81.20;;;;;;5087380;28;20790;-82
2022/05/29 12:35:15;;;;;;;3.07;1.67;;;17.40;79.40;;;;;;5087779;28;20417;-82
2022/05/29 12:38:21;;;;;;;1.70;1.23;;;17.50;81.70;;;;;;5091502;28;20978;-83
2022/05/29 12:41:23;;;;;;;3.60;1.27;;;17.80;80.40;;;;;;5090769;28;20427;-83
2022/05/29 12:43:54;;;;;;;3.10;1.43;;;17.80;79.10;;;;;;5069102;28;20415;-83
2022/05/29 12:47:01;;;;;;;3.30;1.30;;;17.70;79.20;;;;;;5090544;28;20456;-83
2022/05/29 12:49:42;;;;;;;5.63;1.30;;;17.70;79.70;;;;;;5090336;28;20424;-83
2022/05/29 12:52:21;;;;;;;2.30;1.50;;;17.60;80.50;;;;;;5091837;28;20420;-83
2022/05/29 12:54:56;;;;;;;4.60;1.77;;;17.50;79.90;;;;;;5089451;28;20426;-83
2022/05/29 12:57:47;;;;;;;4.90;1.40;;;17.40;78.80;;;;;;5089804;28;20518;-82
2022/05/29 13:00:38;;;;;;;1.97;1.37;;;17.40;80.10;;;;;;5090344;28;20507;-83
2022/05/29 13:03:43;;;;;;;2.13;1.50;;;17.40;80.70;;;;;;5089964;28;20412;-83
2022/05/29 13:06:34;;;;;;;2.20;1.60;;;17.30;80.70;;;;;;5061687;28;20428;-83
2022/05/29 13:09:05;;;;;;;6.70;1.60;;;17.20;81.30;;;;;;5089826;28;20492;-83
2022/05/29 13:11:35;;;;;;;2.30;1.50;;;17.10;80.90;;;;;;5090104;28;20417;-83
2022/05/29 13:14:05;;;;;;;3.87;2.80;;;17.00;81.50;;;;;;5089794;28;20439;-84
2022/05/29 13:16:38;;;;;;;1.83;1.30;;;16.80;82.30;;;;;;5088604;28;20473;-83
2022/05/29 13:19:14;;;;;;;3.00;1.40;;;16.80;82.60;;;;;;5089768;28;20465;-83
2022/05/29 13:22:06;;;;;;;4.77;1.63;;;16.60;82.40;;;;;;5090098;28;20412;-83
2022/05/29 13:24:37;;;;;;;3.70;2.27;;;16.60;83.80;;;;;;5090414;28;20609;-83
2022/05/29 13:27:09;;;;;;;3.90;1.73;;;16.60;84.10;;;;;;5090621;28;20805;-85
2022/05/29 13:29:41;;;;;;;5.17;1.73;;;16.60;83.30;;;;;;5089956;28;20412;-83
2022/05/29 13:32:13;;;;;;;2.60;1.60;;;16.50;82.50;;;;;;5089946;28;20890;-83
2022/05/29 13:34:40;;;;;;;1.83;1.43;;;16.50;84.80;;;;;;5089513;28;20417;-83
2022/05/29 13:37:09;;;;;;;4.23;1.70;;;16.50;85.30;;;;;;5082364;28;20465;-83
2022/05/29 13:39:54;;;;;;;2.70;1.73;;;16.50;84.70;;;;;;5070576;28;20401;-83
2022/05/29 13:42:34;;;;;;;2.37;1.57;;;16.60;85.60;;;;;;5070764;28;20458;-83
2022/05/29 13:45:20;;;;;;;3.07;1.60;;;16.70;84.90;;;;;;5068916;28;20463;-83
2022/05/29 13:48:11;;;;;;;2.10;1.63;;;16.70;85.80;;;;;;5069255;28;20515;-83
2022/05/29 13:50:46;;;;;;;3.60;1.80;;;16.80;84.40;;;;;;5068545;28;20414;-83
2022/05/29 13:53:33;;;;;;;8.93;1.73;;;16.90;84.90;;;;;;5068497;28;20404;-83
2022/05/29 13:56:06;;;;;;;2.70;1.50;;;16.90;84.10;;;;;;5069103;28;20472;-83